AFL1405 USSS-UUEE
Flight info
| Callsign | AFL1405 |
|---|---|
| Flight time | 2h 8m |
| Altitude | 34000 |
| Route | N0470F340 LUNAG M864 KERUN P164 IDMOR M864 IBROT T535 URIDU L158 DIMGI |
| Aircraft | A333/H-VGDW/C |
Departure
| Time | 2026-04-30 20:46 |
|---|---|
| Airport | Koltsovo Airport (USSS) |
Arrival
| Time | 2026-04-30 22:55 |
|---|---|
| Airport | Sheremetyevo International Airport (UUEE) |
| Time | Latitude | Longitude | Altitude | Speed | Heading |
|---|---|---|---|---|---|
| 2026-04-30 20:26 | 56.74929 | 60.79834 | 780 ft | 0 kts | 360° |
| 2026-04-30 20:35 | 56.74911 | 60.79838 | 782 ft | 2 kts | 6° |
| 2026-04-30 20:36 | 56.74891 | 60.79825 | 782 ft | 2 kts | 259° |
| 2026-04-30 20:36 | 56.74897 | 60.79843 | 781 ft | 2 kts | 74° |
| 2026-04-30 20:36 | 56.74890 | 60.79816 | 780 ft | 0 kts | 253° |
| 2026-04-30 20:41 | 56.74891 | 60.79781 | 780 ft | 8 kts | 270° |
| 2026-04-30 20:41 | 56.74873 | 60.79658 | 780 ft | 11 kts | 249° |
| 2026-04-30 20:41 | 56.74858 | 60.79511 | 780 ft | 12 kts | 270° |
| 2026-04-30 20:41 | 56.74856 | 60.79345 | 780 ft | 14 kts | 269° |
| 2026-04-30 20:42 | 56.74857 | 60.79162 | 780 ft | 15 kts | 270° |
| 2026-04-30 20:42 | 56.74856 | 60.78963 | 780 ft | 16 kts | 268° |
| 2026-04-30 20:42 | 56.74854 | 60.78578 | 780 ft | 12 kts | 270° |
| 2026-04-30 20:43 | 56.74855 | 60.78411 | 780 ft | 14 kts | 270° |
| 2026-04-30 20:43 | 56.74854 | 60.78231 | 780 ft | 14 kts | 267° |
| 2026-04-30 20:43 | 56.74790 | 60.78155 | 780 ft | 12 kts | 187° |
| 2026-04-30 20:44 | 56.74610 | 60.78149 | 780 ft | 14 kts | 180° |
| 2026-04-30 20:44 | 56.74510 | 60.78150 | 780 ft | 15 kts | 180° |
| 2026-04-30 20:44 | 56.74306 | 60.78031 | 780 ft | 12 kts | 205° |
| 2026-04-30 20:45 | 56.74228 | 60.78108 | 780 ft | 7 kts | 101° |
| 2026-04-30 20:45 | 56.74222 | 60.78211 | 780 ft | 8 kts | 95° |
| 2026-04-30 20:45 | 56.74221 | 60.78240 | 780 ft | 16 kts | 95° |
| 2026-04-30 20:46 | 56.73994 | 60.83365 | 1224 ft | 210 kts | 94° |
| 2026-04-30 20:46 | 56.73899 | 60.86165 | 1739 ft | 230 kts | 93° |
| 2026-04-30 20:47 | 56.73875 | 60.92269 | 3026 ft | 246 kts | 88° |
| 2026-04-30 20:47 | 56.73915 | 60.95390 | 3824 ft | 248 kts | 89° |
| 2026-04-30 20:48 | 56.73848 | 61.01794 | 5252 ft | 257 kts | 99° |
| 2026-04-30 20:48 | 56.73164 | 61.04777 | 5973 ft | 259 kts | 126° |
| 2026-04-30 20:48 | 56.71819 | 61.06936 | 6684 ft | 261 kts | 152° |
| 2026-04-30 20:48 | 56.70076 | 61.07813 | 7378 ft | 256 kts | 177° |
| 2026-04-30 20:49 | 56.68355 | 61.07284 | 7559 ft | 255 kts | 204° |
| 2026-04-30 20:49 | 56.66919 | 61.05318 | 7819 ft | 269 kts | 232° |
| 2026-04-30 20:49 | 56.66137 | 61.02270 | 8594 ft | 269 kts | 259° |
| 2026-04-30 20:50 | 56.66926 | 60.95714 | 9880 ft | 280 kts | 297° |
| 2026-04-30 20:50 | 56.67817 | 60.92573 | 10388 ft | 290 kts | 297° |
| 2026-04-30 20:50 | 56.68662 | 60.89212 | 10606 ft | 310 kts | 293° |
| 2026-04-30 20:50 | 56.69437 | 60.85495 | 10820 ft | 328 kts | 289° |
| 2026-04-30 20:51 | 56.70148 | 60.81385 | 11415 ft | 333 kts | 287° |
| 2026-04-30 20:51 | 56.71377 | 60.73441 | 11812 ft | 330 kts | 286° |
| 2026-04-30 20:51 | 56.71985 | 60.69506 | 12270 ft | 337 kts | 286° |
| 2026-04-30 20:52 | 56.72634 | 60.65374 | 12897 ft | 340 kts | 286° |
| 2026-04-30 20:52 | 56.73281 | 60.61281 | 13278 ft | 329 kts | 286° |
| 2026-04-30 20:52 | 56.74577 | 60.53104 | 13615 ft | 344 kts | 286° |
| 2026-04-30 20:53 | 56.75234 | 60.48956 | 14214 ft | 347 kts | 286° |
| 2026-04-30 20:53 | 56.75767 | 60.44587 | 14767 ft | 350 kts | 280° |
| 2026-04-30 20:53 | 56.76196 | 60.40259 | 15345 ft | 353 kts | 280° |
| 2026-04-30 20:54 | 56.77066 | 60.31750 | 16436 ft | 358 kts | 281° |
| 2026-04-30 20:54 | 56.77527 | 60.27260 | 16957 ft | 361 kts | 281° |
| 2026-04-30 20:54 | 56.77990 | 60.22741 | 17498 ft | 364 kts | 281° |
| 2026-04-30 20:55 | 56.78902 | 60.13602 | 18535 ft | 369 kts | 278° |
| 2026-04-30 20:55 | 56.79186 | 60.08921 | 19039 ft | 372 kts | 276° |
| 2026-04-30 20:55 | 56.79464 | 60.04209 | 19552 ft | 375 kts | 276° |
| 2026-04-30 20:56 | 56.80039 | 59.94655 | 20571 ft | 381 kts | 276° |
| 2026-04-30 20:56 | 56.80329 | 59.89843 | 21049 ft | 384 kts | 276° |
| 2026-04-30 20:56 | 56.80911 | 59.80071 | 22021 ft | 390 kts | 276° |
| 2026-04-30 20:57 | 56.81202 | 59.75133 | 22501 ft | 393 kts | 276° |
| 2026-04-30 20:57 | 56.81493 | 59.70159 | 22964 ft | 396 kts | 276° |
| 2026-04-30 20:57 | 56.81784 | 59.65147 | 23458 ft | 398 kts | 276° |
| 2026-04-30 20:58 | 56.82329 | 59.55673 | 24324 ft | 403 kts | 276° |
| 2026-04-30 20:58 | 56.82621 | 59.50527 | 24801 ft | 406 kts | 276° |
| 2026-04-30 20:58 | 56.82913 | 59.45358 | 25232 ft | 409 kts | 276° |
| 2026-04-30 20:58 | 56.83200 | 59.40235 | 25665 ft | 412 kts | 276° |
| 2026-04-30 20:59 | 56.83702 | 59.31172 | 26399 ft | 416 kts | 276° |
| 2026-04-30 20:59 | 56.83991 | 59.25899 | 26834 ft | 418 kts | 276° |
| 2026-04-30 21:00 | 56.84567 | 59.15257 | 27658 ft | 423 kts | 275° |
| 2026-04-30 21:00 | 56.85086 | 59.04474 | 28390 ft | 427 kts | 271° |
| 2026-04-30 21:01 | 56.85360 | 58.88295 | 28783 ft | 430 kts | 272° |
| 2026-04-30 21:01 | 56.85559 | 58.77337 | 29494 ft | 434 kts | 272° |
| 2026-04-30 21:02 | 56.85653 | 58.71804 | 29839 ft | 437 kts | 271° |
| 2026-04-30 21:02 | 56.85744 | 58.66312 | 30187 ft | 439 kts | 271° |
| 2026-04-30 21:02 | 56.85834 | 58.60659 | 30525 ft | 441 kts | 271° |
| 2026-04-30 21:02 | 56.85899 | 58.56482 | 30767 ft | 443 kts | 271° |
| 2026-04-30 21:03 | 56.85983 | 58.50932 | 31116 ft | 445 kts | 271° |
| 2026-04-30 21:03 | 56.86067 | 58.45234 | 31446 ft | 448 kts | 271° |
| 2026-04-30 21:03 | 56.86148 | 58.39556 | 31796 ft | 449 kts | 271° |
| 2026-04-30 21:03 | 56.86227 | 58.33811 | 32107 ft | 452 kts | 271° |
| 2026-04-30 21:04 | 56.86304 | 58.28054 | 32418 ft | 454 kts | 271° |
| 2026-04-30 21:04 | 56.86379 | 58.22272 | 32673 ft | 456 kts | 271° |
| 2026-04-30 21:04 | 56.86519 | 58.10720 | 32907 ft | 452 kts | 271° |
| 2026-04-30 21:05 | 56.86650 | 57.99152 | 33029 ft | 459 kts | 271° |
| 2026-04-30 21:05 | 56.86711 | 57.93316 | 33261 ft | 460 kts | 271° |
| 2026-04-30 21:05 | 56.86770 | 57.87471 | 33446 ft | 461 kts | 271° |
| 2026-04-30 21:06 | 56.86827 | 57.81597 | 33627 ft | 462 kts | 271° |
| 2026-04-30 21:06 | 56.86880 | 57.75727 | 33821 ft | 463 kts | 271° |
| 2026-04-30 21:06 | 56.86932 | 57.69846 | 34040 ft | 462 kts | 271° |
| 2026-04-30 21:06 | 56.86980 | 57.63983 | 34128 ft | 461 kts | 271° |
| 2026-04-30 21:07 | 56.87067 | 57.52342 | 34129 ft | 458 kts | 271° |
| 2026-04-30 21:07 | 56.87144 | 57.40613 | 34129 ft | 462 kts | 270° |
| 2026-04-30 21:08 | 56.87210 | 57.28942 | 34130 ft | 461 kts | 270° |
| 2026-04-30 21:08 | 56.87265 | 57.17323 | 34130 ft | 457 kts | 270° |
| 2026-04-30 21:09 | 56.87309 | 57.05618 | 34130 ft | 460 kts | 270° |
| 2026-04-30 21:09 | 56.87343 | 56.93902 | 34130 ft | 460 kts | 270° |
| 2026-04-30 21:10 | 56.87365 | 56.82220 | 34130 ft | 460 kts | 270° |
| 2026-04-30 21:10 | 56.87376 | 56.70517 | 34130 ft | 459 kts | 270° |
| 2026-04-30 21:11 | 56.87377 | 56.58917 | 34130 ft | 459 kts | 270° |
| 2026-04-30 21:11 | 56.87369 | 56.47283 | 34129 ft | 454 kts | 270° |
| 2026-04-30 21:12 | 56.87419 | 56.35738 | 34128 ft | 454 kts | 271° |
| 2026-04-30 21:12 | 56.87558 | 56.24221 | 34129 ft | 460 kts | 271° |
| 2026-04-30 21:13 | 56.87674 | 56.12513 | 34129 ft | 460 kts | 271° |
| 2026-04-30 21:13 | 56.87767 | 56.00802 | 34129 ft | 460 kts | 271° |
| 2026-04-30 21:14 | 56.87846 | 55.89128 | 34129 ft | 460 kts | 270° |
| 2026-04-30 21:14 | 56.87729 | 55.77414 | 34130 ft | 460 kts | 268° |
| 2026-04-30 21:15 | 56.87543 | 55.65807 | 34129 ft | 458 kts | 268° |
| 2026-04-30 21:15 | 56.87373 | 55.54136 | 34130 ft | 459 kts | 268° |
| 2026-04-30 21:16 | 56.87203 | 55.42448 | 34130 ft | 460 kts | 268° |
| 2026-04-30 21:16 | 56.87022 | 55.30741 | 34130 ft | 460 kts | 268° |
| 2026-04-30 21:17 | 56.86833 | 55.19194 | 34130 ft | 454 kts | 268° |
| 2026-04-30 21:17 | 56.86632 | 55.07622 | 34130 ft | 454 kts | 268° |
| 2026-04-30 21:18 | 56.86420 | 54.95956 | 34129 ft | 460 kts | 268° |
| 2026-04-30 21:18 | 56.86234 | 54.86249 | 34129 ft | 460 kts | 268° |
| 2026-04-30 21:19 | 56.86001 | 54.74583 | 34129 ft | 460 kts | 268° |
| 2026-04-30 21:19 | 56.85758 | 54.62988 | 34129 ft | 454 kts | 268° |
| 2026-04-30 21:20 | 56.85553 | 54.51253 | 34130 ft | 460 kts | 269° |
| 2026-04-30 21:20 | 56.85421 | 54.39655 | 34128 ft | 454 kts | 269° |
| 2026-04-30 21:21 | 56.85266 | 54.28046 | 34130 ft | 461 kts | 268° |
| 2026-04-30 21:22 | 56.84994 | 54.10512 | 34129 ft | 460 kts | 268° |
| 2026-04-30 21:23 | 56.84449 | 53.87151 | 34129 ft | 460 kts | 267° |
| 2026-04-30 21:23 | 56.84006 | 53.69608 | 34129 ft | 460 kts | 267° |
| 2026-04-30 21:24 | 56.83704 | 53.58010 | 34130 ft | 461 kts | 267° |
| 2026-04-30 21:24 | 56.83388 | 53.46335 | 34130 ft | 461 kts | 267° |
| 2026-04-30 21:25 | 56.83320 | 53.28776 | 34130 ft | 460 kts | 271° |
| 2026-04-30 21:26 | 56.83373 | 53.11259 | 34130 ft | 460 kts | 270° |
| 2026-04-30 21:27 | 56.83341 | 52.93808 | 34130 ft | 461 kts | 270° |
| 2026-04-30 21:27 | 56.83282 | 52.82078 | 34130 ft | 461 kts | 269° |
| 2026-04-30 21:28 | 56.83149 | 52.64596 | 34130 ft | 461 kts | 269° |
| 2026-04-30 21:29 | 56.82999 | 52.47045 | 34130 ft | 461 kts | 269° |
| 2026-04-30 21:30 | 56.82696 | 52.17784 | 34130 ft | 461 kts | 269° |
| 2026-04-30 21:31 | 56.83128 | 51.88731 | 34131 ft | 459 kts | 271° |
| 2026-04-30 21:32 | 56.83361 | 51.71206 | 34130 ft | 460 kts | 271° |
| 2026-04-30 21:32 | 56.83497 | 51.59500 | 34130 ft | 460 kts | 271° |
| 2026-04-30 21:33 | 56.83130 | 51.42058 | 34130 ft | 460 kts | 266° |
| 2026-04-30 21:34 | 56.82689 | 51.30372 | 34130 ft | 461 kts | 266° |
| 2026-04-30 21:34 | 56.82010 | 51.12849 | 34129 ft | 458 kts | 266° |
| 2026-04-30 21:35 | 56.81544 | 51.01274 | 34129 ft | 461 kts | 265° |
| 2026-04-30 21:35 | 56.81066 | 50.89678 | 34130 ft | 461 kts | 265° |
| 2026-04-30 21:36 | 56.80576 | 50.78037 | 34129 ft | 460 kts | 265° |
| 2026-04-30 21:37 | 56.79561 | 50.54713 | 34130 ft | 461 kts | 265° |
| 2026-04-30 21:37 | 56.79036 | 50.43034 | 34130 ft | 461 kts | 265° |
| 2026-04-30 21:38 | 56.78500 | 50.31368 | 34130 ft | 461 kts | 265° |
| 2026-04-30 21:38 | 56.77953 | 50.19690 | 34130 ft | 462 kts | 265° |
| 2026-04-30 21:39 | 56.77402 | 50.08157 | 34130 ft | 462 kts | 265° |
| 2026-04-30 21:39 | 56.76831 | 49.96438 | 34130 ft | 462 kts | 265° |
| 2026-04-30 21:40 | 56.76253 | 49.84794 | 34129 ft | 462 kts | 265° |
| 2026-04-30 21:40 | 56.75797 | 49.73125 | 34129 ft | 462 kts | 268° |
| 2026-04-30 21:41 | 56.75552 | 49.61439 | 34130 ft | 461 kts | 268° |
| 2026-04-30 21:41 | 56.75265 | 49.49746 | 34130 ft | 462 kts | 267° |
| 2026-04-30 21:42 | 56.74943 | 49.38141 | 34130 ft | 462 kts | 267° |
| 2026-04-30 21:42 | 56.74603 | 49.26447 | 34130 ft | 462 kts | 267° |
| 2026-04-30 21:43 | 56.74253 | 49.14770 | 34130 ft | 462 kts | 267° |
| 2026-04-30 21:43 | 56.73892 | 49.03080 | 34130 ft | 462 kts | 266° |
| 2026-04-30 21:44 | 56.73521 | 48.91406 | 34130 ft | 462 kts | 266° |
| 2026-04-30 21:44 | 56.73138 | 48.79726 | 34130 ft | 462 kts | 266° |
| 2026-04-30 21:45 | 56.72744 | 48.68028 | 34129 ft | 462 kts | 266° |
| 2026-04-30 21:45 | 56.72340 | 48.56368 | 34129 ft | 462 kts | 266° |
| 2026-04-30 21:46 | 56.71926 | 48.44691 | 34129 ft | 462 kts | 266° |
| 2026-04-30 21:46 | 56.71506 | 48.33097 | 34130 ft | 462 kts | 266° |
| 2026-04-30 21:47 | 56.71072 | 48.21430 | 34130 ft | 461 kts | 266° |
| 2026-04-30 21:47 | 56.70627 | 48.09778 | 34130 ft | 462 kts | 266° |
| 2026-04-30 21:48 | 56.70177 | 47.98274 | 34131 ft | 458 kts | 266° |
| 2026-04-30 21:48 | 56.69711 | 47.86620 | 34130 ft | 461 kts | 266° |
| 2026-04-30 21:49 | 56.69234 | 47.74983 | 34130 ft | 461 kts | 265° |
| 2026-04-30 21:49 | 56.68746 | 47.63353 | 34130 ft | 462 kts | 265° |
| 2026-04-30 21:50 | 56.68247 | 47.51700 | 34130 ft | 461 kts | 265° |
| 2026-04-30 21:50 | 56.67741 | 47.40152 | 34130 ft | 461 kts | 265° |
| 2026-04-30 21:51 | 56.66899 | 47.28590 | 34130 ft | 461 kts | 257° |
| 2026-04-30 21:51 | 56.64916 | 47.17515 | 34129 ft | 461 kts | 249° |
| 2026-04-30 21:52 | 56.62703 | 47.06566 | 34129 ft | 461 kts | 250° |
| 2026-04-30 21:52 | 56.60516 | 46.95696 | 34131 ft | 461 kts | 250° |
| 2026-04-30 21:53 | 56.58298 | 46.84743 | 34129 ft | 463 kts | 250° |
| 2026-04-30 21:53 | 56.56067 | 46.73792 | 34130 ft | 462 kts | 250° |
| 2026-04-30 21:54 | 56.53828 | 46.62869 | 34129 ft | 462 kts | 249° |
| 2026-04-30 21:54 | 56.51601 | 46.52065 | 34129 ft | 462 kts | 249° |
| 2026-04-30 21:55 | 56.49332 | 46.41117 | 34129 ft | 462 kts | 249° |
| 2026-04-30 21:55 | 56.47063 | 46.30225 | 34130 ft | 462 kts | 249° |
| 2026-04-30 21:56 | 56.44787 | 46.19361 | 34129 ft | 462 kts | 249° |
| 2026-04-30 21:56 | 56.42504 | 46.08521 | 34129 ft | 462 kts | 249° |
| 2026-04-30 21:57 | 56.40201 | 45.97646 | 34130 ft | 462 kts | 249° |
| 2026-04-30 21:57 | 56.37896 | 45.86816 | 34129 ft | 462 kts | 249° |
| 2026-04-30 21:58 | 56.35583 | 45.76000 | 34129 ft | 462 kts | 249° |
| 2026-04-30 21:58 | 56.33253 | 45.65170 | 34130 ft | 462 kts | 249° |
| 2026-04-30 21:59 | 56.30934 | 45.54445 | 34129 ft | 462 kts | 249° |
| 2026-04-30 22:00 | 56.27433 | 45.38358 | 34157 ft | 463 kts | 248° |
| 2026-04-30 22:00 | 56.23896 | 45.22209 | 34157 ft | 462 kts | 248° |
| 2026-04-30 22:01 | 56.21535 | 45.11489 | 34157 ft | 462 kts | 248° |
| 2026-04-30 22:01 | 56.19154 | 45.00739 | 34157 ft | 462 kts | 248° |
| 2026-04-30 22:02 | 56.16766 | 44.90011 | 34157 ft | 462 kts | 248° |
| 2026-04-30 22:02 | 56.14367 | 44.79288 | 34157 ft | 462 kts | 248° |
| 2026-04-30 22:03 | 56.12033 | 44.68547 | 34159 ft | 462 kts | 252° |
| 2026-04-30 22:03 | 56.10745 | 44.57285 | 34158 ft | 462 kts | 264° |
| 2026-04-30 22:04 | 56.10222 | 44.47768 | 34157 ft | 462 kts | 264° |
| 2026-04-30 22:05 | 56.09194 | 44.30578 | 34157 ft | 462 kts | 264° |
| 2026-04-30 22:05 | 56.08485 | 44.19130 | 34157 ft | 463 kts | 263° |
| 2026-04-30 22:06 | 56.07770 | 44.07731 | 34157 ft | 463 kts | 263° |
| 2026-04-30 22:06 | 56.06670 | 43.90525 | 34157 ft | 464 kts | 263° |
| 2026-04-30 22:07 | 56.05929 | 43.79147 | 34158 ft | 460 kts | 263° |
| 2026-04-30 22:07 | 56.05172 | 43.67695 | 34157 ft | 464 kts | 263° |
| 2026-04-30 22:08 | 56.04405 | 43.56242 | 34157 ft | 464 kts | 263° |
| 2026-04-30 22:08 | 56.03626 | 43.44785 | 34157 ft | 464 kts | 263° |
| 2026-04-30 22:09 | 56.02916 | 43.33326 | 34158 ft | 464 kts | 268° |
| 2026-04-30 22:09 | 56.03060 | 43.21811 | 34157 ft | 463 kts | 272° |
| 2026-04-30 22:10 | 56.03265 | 43.10296 | 34157 ft | 463 kts | 271° |
| 2026-04-30 22:10 | 56.03443 | 42.98906 | 34157 ft | 463 kts | 271° |
| 2026-04-30 22:11 | 56.03687 | 42.81663 | 34157 ft | 463 kts | 271° |
| 2026-04-30 22:12 | 56.03838 | 42.70125 | 34157 ft | 463 kts | 271° |
| 2026-04-30 22:12 | 56.03869 | 42.58626 | 34157 ft | 459 kts | 265° |
| 2026-04-30 22:13 | 56.02644 | 42.47470 | 34158 ft | 461 kts | 252° |
| 2026-04-30 22:13 | 56.00244 | 42.36774 | 34157 ft | 465 kts | 248° |
| 2026-04-30 22:14 | 55.97803 | 42.26100 | 34157 ft | 465 kts | 248° |
| 2026-04-30 22:14 | 55.95357 | 42.15418 | 34157 ft | 465 kts | 248° |
| 2026-04-30 22:15 | 55.92916 | 42.04834 | 34157 ft | 465 kts | 248° |
| 2026-04-30 22:15 | 55.90441 | 41.94166 | 34157 ft | 465 kts | 247° |
| 2026-04-30 22:16 | 55.88008 | 41.83456 | 34157 ft | 464 kts | 251° |
| 2026-04-30 22:17 | 55.86245 | 41.60764 | 34157 ft | 465 kts | 267° |
| 2026-04-30 22:17 | 55.85739 | 41.43578 | 34183 ft | 465 kts | 266° |
| 2026-04-30 22:18 | 55.85184 | 41.26332 | 34184 ft | 465 kts | 266° |
| 2026-04-30 22:19 | 55.84606 | 41.09109 | 34184 ft | 466 kts | 266° |
| 2026-04-30 22:20 | 55.84003 | 40.91835 | 34184 ft | 466 kts | 266° |
| 2026-04-30 22:20 | 55.83375 | 40.74580 | 34184 ft | 466 kts | 266° |
| 2026-04-30 22:21 | 55.82944 | 40.63081 | 34184 ft | 466 kts | 266° |
| 2026-04-30 22:21 | 55.82495 | 40.51641 | 33626 ft | 461 kts | 266° |
| 2026-04-30 22:22 | 55.82266 | 40.46032 | 32950 ft | 459 kts | 266° |
| 2026-04-30 22:22 | 55.82035 | 40.40409 | 32375 ft | 456 kts | 266° |
| 2026-04-30 22:22 | 55.81801 | 40.34801 | 31771 ft | 451 kts | 265° |
| 2026-04-30 22:22 | 55.81569 | 40.29264 | 31186 ft | 446 kts | 265° |
| 2026-04-30 22:23 | 55.81339 | 40.23821 | 30613 ft | 442 kts | 265° |
| 2026-04-30 22:23 | 55.81107 | 40.18393 | 30031 ft | 437 kts | 265° |
| 2026-04-30 22:23 | 55.80875 | 40.13026 | 29442 ft | 433 kts | 265° |
| 2026-04-30 22:23 | 55.80643 | 40.07716 | 28849 ft | 428 kts | 265° |
| 2026-04-30 22:24 | 55.80410 | 40.02423 | 28200 ft | 426 kts | 265° |
| 2026-04-30 22:24 | 55.80177 | 39.97197 | 27608 ft | 422 kts | 265° |
| 2026-04-30 22:24 | 55.79946 | 39.92043 | 26999 ft | 418 kts | 265° |
| 2026-04-30 22:24 | 55.79717 | 39.86996 | 26386 ft | 415 kts | 265° |
| 2026-04-30 22:25 | 55.79480 | 39.81822 | 25778 ft | 411 kts | 265° |
| 2026-04-30 22:25 | 55.79223 | 39.76793 | 25142 ft | 407 kts | 264° |
| 2026-04-30 22:25 | 55.78893 | 39.71802 | 24516 ft | 404 kts | 263° |
| 2026-04-30 22:25 | 55.78546 | 39.66906 | 23902 ft | 400 kts | 263° |
| 2026-04-30 22:26 | 55.77862 | 39.57135 | 22642 ft | 392 kts | 263° |
| 2026-04-30 22:26 | 55.77538 | 39.52418 | 22011 ft | 388 kts | 263° |
| 2026-04-30 22:26 | 55.77214 | 39.47665 | 21365 ft | 385 kts | 263° |
| 2026-04-30 22:27 | 55.76893 | 39.42967 | 20703 ft | 381 kts | 263° |
| 2026-04-30 22:27 | 55.76575 | 39.38332 | 20121 ft | 375 kts | 263° |
| 2026-04-30 22:27 | 55.75938 | 39.29186 | 18784 ft | 369 kts | 263° |
| 2026-04-30 22:28 | 55.75303 | 39.20196 | 18116 ft | 368 kts | 263° |
| 2026-04-30 22:28 | 55.74983 | 39.15703 | 17817 ft | 366 kts | 263° |
| 2026-04-30 22:29 | 55.74023 | 39.02351 | 16915 ft | 361 kts | 263° |
| 2026-04-30 22:29 | 55.73702 | 38.97929 | 16599 ft | 360 kts | 263° |
| 2026-04-30 22:30 | 55.74002 | 38.80456 | 15469 ft | 354 kts | 275° |
| 2026-04-30 22:31 | 55.74648 | 38.67444 | 14793 ft | 352 kts | 275° |
| 2026-04-30 22:32 | 55.76063 | 38.54855 | 14116 ft | 348 kts | 297° |
| 2026-04-30 22:32 | 55.78801 | 38.47809 | 13676 ft | 346 kts | 306° |
| 2026-04-30 22:33 | 55.82954 | 38.37400 | 12995 ft | 342 kts | 305° |
| 2026-04-30 22:33 | 55.85825 | 38.30662 | 12549 ft | 339 kts | 308° |
| 2026-04-30 22:34 | 55.89889 | 38.21437 | 11858 ft | 292 kts | 308° |
| 2026-04-30 22:35 | 55.92357 | 38.15733 | 11408 ft | 290 kts | 307° |
| 2026-04-30 22:36 | 55.97218 | 38.04435 | 10758 ft | 286 kts | 307° |
| 2026-04-30 22:36 | 55.98425 | 38.01621 | 10633 ft | 286 kts | 307° |
| 2026-04-30 22:37 | 56.01011 | 37.92264 | 10261 ft | 284 kts | 279° |
| 2026-04-30 22:37 | 56.01333 | 37.88779 | 10131 ft | 284 kts | 279° |
| 2026-04-30 22:37 | 56.02031 | 37.81852 | 9884 ft | 282 kts | 280° |
| 2026-04-30 22:38 | 56.03811 | 37.75799 | 9561 ft | 282 kts | 321° |
| 2026-04-30 22:38 | 56.07292 | 37.72727 | 8660 ft | 275 kts | 339° |
| 2026-04-30 22:39 | 56.09073 | 37.71468 | 8178 ft | 276 kts | 338° |
| 2026-04-30 22:39 | 56.14464 | 37.68613 | 6755 ft | 269 kts | 2° |
| 2026-04-30 22:40 | 56.19942 | 37.69564 | 5672 ft | 251 kts | 5° |
| 2026-04-30 22:41 | 56.24988 | 37.70325 | 4778 ft | 240 kts | 5° |
| 2026-04-30 22:41 | 56.28318 | 37.70824 | 4173 ft | 239 kts | 5° |
| 2026-04-30 22:42 | 56.32274 | 37.63726 | 2978 ft | 232 kts | 257° |
| 2026-04-30 22:43 | 56.30274 | 37.59333 | 2408 ft | 232 kts | 213° |
| 2026-04-30 22:43 | 56.27771 | 37.56124 | 2297 ft | 203 kts | 219° |
| 2026-04-30 22:44 | 56.25630 | 37.52870 | 2301 ft | 199 kts | 205° |
| 2026-04-30 22:45 | 56.21282 | 37.56658 | 2301 ft | 185 kts | 138° |
| 2026-04-30 22:45 | 56.19260 | 37.59642 | 2302 ft | 191 kts | 134° |
| 2026-04-30 22:46 | 56.17430 | 37.63093 | 2288 ft | 191 kts | 134° |
| 2026-04-30 22:47 | 56.13706 | 37.69878 | 2300 ft | 191 kts | 135° |
| 2026-04-30 22:47 | 56.11838 | 37.73274 | 2303 ft | 192 kts | 134° |
| 2026-04-30 22:48 | 56.09958 | 37.76658 | 2278 ft | 191 kts | 139° |
| 2026-04-30 22:49 | 56.06229 | 37.76427 | 2298 ft | 188 kts | 203° |
| 2026-04-30 22:49 | 56.02648 | 37.73961 | 2296 ft | 181 kts | 202° |
| 2026-04-30 22:50 | 56.00762 | 37.66084 | 2292 ft | 181 kts | 259° |
| 2026-04-30 22:51 | 56.00282 | 37.62546 | 2298 ft | 160 kts | 255° |
| 2026-04-30 22:51 | 55.99740 | 37.58940 | 2279 ft | 140 kts | 256° |
| 2026-04-30 22:52 | 55.99483 | 37.57215 | 2099 ft | 141 kts | 256° |
| 2026-04-30 22:52 | 55.98984 | 37.53870 | 1725 ft | 138 kts | 255° |
| 2026-04-30 22:53 | 55.98486 | 37.50526 | 1366 ft | 142 kts | 256° |
| 2026-04-30 22:53 | 55.97990 | 37.47196 | 991 ft | 135 kts | 255° |
| 2026-04-30 22:53 | 55.97745 | 37.45554 | 811 ft | 139 kts | 255° |
| 2026-04-30 22:54 | 55.97287 | 37.42462 | 650 ft | 84 kts | 255° |
| 2026-04-30 22:55 | 55.97147 | 37.41386 | 646 ft | 24 kts | 286° |
| 2026-04-30 22:55 | 55.97419 | 37.41225 | 648 ft | 20 kts | 344° |
| 2026-04-30 22:56 | 55.97570 | 37.41405 | 645 ft | 19 kts | 76° |
| 2026-04-30 22:56 | 55.97690 | 37.41665 | 647 ft | 14 kts | 61° |
| 2026-04-30 22:57 | 55.97772 | 37.42065 | 645 ft | 14 kts | 41° |
| 2026-04-30 22:57 | 55.97933 | 37.42020 | 645 ft | 12 kts | 345° |
| 2026-04-30 22:58 | 55.97965 | 37.41935 | 645 ft | 6 kts | 264° |
| 2026-04-30 22:59 | 55.97954 | 37.41839 | 645 ft | 0 kts | 258° |